sensor_id;sensor_type;location;lat;lon;timestamp;pressure;altitude;pressure_sealevel;temperature;humidity
58973;BME280;44750;52.040;7.472;2023-06-10T00:03:05;100278.03;;;20.51;100.00
58973;BME280;44750;52.040;7.472;2023-06-10T00:08:06;100256.19;;;20.37;100.00
58973;BME280;44750;52.040;7.472;2023-06-10T00:13:06;100273.84;;;20.48;100.00
58973;BME280;44750;52.040;7.472;2023-06-10T00:18:07;100257.97;;;20.32;100.00
58973;BME280;44750;52.040;7.472;2023-06-10T00:23:07;100277.66;;;20.29;100.00
58973;BME280;44750;52.040;7.472;2023-06-10T00:28:07;100273.78;;;20.18;100.00
58973;BME280;44750;52.040;7.472;2023-06-10T00:33:07;100278.88;;;20.14;100.00
58973;BME280;44750;52.040;7.472;2023-06-10T00:38:07;100251.97;;;19.98;100.00
58973;BME280;44750;52.040;7.472;2023-06-10T00:43:08;100272.66;;;20.00;100.00
58973;BME280;44750;52.040;7.472;2023-06-10T00:48:09;100263.53;;;19.81;100.00
58973;BME280;44750;52.040;7.472;2023-06-10T00:53:09;100239.97;;;19.67;100.00
58973;BME280;44750;52.040;7.472;2023-06-10T00:58:10;100280.38;;;19.60;100.00
58973;BME280;44750;52.040;7.472;2023-06-10T01:03:11;100295.34;;;19.64;100.00
58973;BME280;44750;52.040;7.472;2023-06-10T01:08:35;100287.81;;;19.52;100.00
58973;BME280;44750;52.040;7.472;2023-06-10T01:13:41;100295.03;;;19.47;100.00
58973;BME280;44750;52.040;7.472;2023-06-10T01:18:41;100299.34;;;19.36;100.00
58973;BME280;44750;52.040;7.472;2023-06-10T01:23:42;100306.53;;;19.37;100.00
58973;BME280;44750;52.040;7.472;2023-06-10T01:29:06;100306.56;;;19.30;100.00
58973;BME280;44750;52.040;7.472;2023-06-10T01:34:11;100302.22;;;19.16;100.00
58973;BME280;44750;52.040;7.472;2023-06-10T01:39:13;100312.19;;;19.10;100.00
58973;BME280;44750;52.040;7.472;2023-06-10T01:44:18;100321.28;;;19.04;100.00
58973;BME280;44750;52.040;7.472;2023-06-10T01:49:18;100306.13;;;18.95;100.00
58973;BME280;44750;52.040;7.472;2023-06-10T01:54:19;100297.97;;;18.75;100.00
58973;BME280;44750;52.040;7.472;2023-06-10T01:59:19;100289.59;;;18.56;100.00
58973;BME280;44750;52.040;7.472;2023-06-10T02:04:19;100303.09;;;18.51;100.00
58973;BME280;44750;52.040;7.472;2023-06-10T02:09:19;100293.03;;;18.45;100.00
58973;BME280;44750;52.040;7.472;2023-06-10T02:14:19;100295.94;;;18.43;100.00
58973;BME280;44750;52.040;7.472;2023-06-10T02:19:20;100304.84;;;18.32;100.00
58973;BME280;44750;52.040;7.472;2023-06-10T02:24:20;100297.72;;;18.17;100.00
58973;BME280;44750;52.040;7.472;2023-06-10T02:29:20;100274.34;;;17.95;100.00
58973;BME280;44750;52.040;7.472;2023-06-10T02:34:20;100294.78;;;17.99;100.00
58973;BME280;44750;52.040;7.472;2023-06-10T02:39:21;100290.16;;;17.93;100.00
58973;BME280;44750;52.040;7.472;2023-06-10T02:44:22;100273.69;;;17.79;99.39
58973;BME280;44750;52.040;7.472;2023-06-10T02:49:22;100271.59;;;17.68;96.26
58973;BME280;44750;52.040;7.472;2023-06-10T02:54:23;100266.75;;;17.63;93.39
58973;BME280;44750;52.040;7.472;2023-06-10T02:59:23;100252.88;;;17.58;90.74
58973;BME280;44750;52.040;7.472;2023-06-10T03:04:23;100238.56;;;17.49;88.39
58973;BME280;44750;52.040;7.472;2023-06-10T03:09:24;100216.88;;;17.28;84.00
58973;BME280;44750;52.040;7.472;2023-06-10T03:14:25;100230.97;;;17.31;80.03
58973;BME280;44750;52.040;7.472;2023-06-10T03:19:25;100217.28;;;17.25;76.40
58973;BME280;44750;52.040;7.472;2023-06-10T03:24:25;100238.97;;;17.19;72.49
58973;BME280;44750;52.040;7.472;2023-06-10T03:29:26;100233.28;;;17.28;71.30
58973;BME280;44750;52.040;7.472;2023-06-10T03:34:26;100250.97;;;17.38;70.00
58973;BME280;44750;52.040;7.472;2023-06-10T03:39:26;100250.13;;;17.38;70.79
58973;BME280;44750;52.040;7.472;2023-06-10T03:44:26;100261.25;;;17.23;67.90
58973;BME280;44750;52.040;7.472;2023-06-10T03:49:26;100254.31;;;17.20;66.35
58973;BME280;44750;52.040;7.472;2023-06-10T03:54:27;100271.81;;;17.33;65.17
58973;BME280;44750;52.040;7.472;2023-06-10T03:59:27;100249.69;;;17.14;64.11
58973;BME280;44750;52.040;7.472;2023-06-10T04:04:27;100260.63;;;17.08;61.20
58973;BME280;44750;52.040;7.472;2023-06-10T04:09:27;100284.22;;;17.29;59.73
58973;BME280;44750;52.040;7.472;2023-06-10T04:14:28;100283.38;;;17.48;62.63
58973;BME280;44750;52.040;7.472;2023-06-10T04:19:28;100296.66;;;17.71;65.95
58973;BME280;44750;52.040;7.472;2023-06-10T04:24:28;100279.16;;;17.72;70.26
58973;BME280;44750;52.040;7.472;2023-06-10T04:29:28;100340.06;;;18.15;75.81
58973;BME280;44750;52.040;7.472;2023-06-10T04:34:29;100344.47;;;18.36;81.36
58973;BME280;44750;52.040;7.472;2023-06-10T04:39:29;100321.72;;;18.29;87.63
58973;BME280;44750;52.040;7.472;2023-06-10T04:44:29;100304.84;;;18.32;92.00
58973;BME280;44750;52.040;7.472;2023-06-10T04:49:29;100349.69;;;18.58;95.11
58973;BME280;44750;52.040;7.472;2023-06-10T04:54:30;100305.22;;;18.55;100.00
58973;BME280;44750;52.040;7.472;2023-06-10T04:59:30;100322.41;;;18.76;100.00
58973;BME280;44750;52.040;7.472;2023-06-10T05:04:30;100291.19;;;18.77;100.00
58973;BME280;44750;52.040;7.472;2023-06-10T05:09:30;100333.28;;;19.03;100.00
58973;BME280;44750;52.040;7.472;2023-06-10T05:14:30;100377.06;;;19.30;100.00
58973;BME280;44750;52.040;7.472;2023-06-10T05:19:31;100351.50;;;19.36;100.00
58973;BME280;44750;52.040;7.472;2023-06-10T05:24:31;100283.72;;;19.36;100.00
58973;BME280;44750;52.040;7.472;2023-06-10T05:29:32;100253.63;;;19.23;100.00
58973;BME280;44750;52.040;7.472;2023-06-10T05:34:32;100240.97;;;19.22;100.00
58973;BME280;44750;52.040;7.472;2023-06-10T05:39:32;100288.38;;;19.36;100.00
58973;BME280;44750;52.040;7.472;2023-06-10T05:44:33;100226.91;;;19.12;100.00
58973;BME280;44750;52.040;7.472;2023-06-10T05:49:33;100279.63;;;19.46;100.00
58973;BME280;44750;52.040;7.472;2023-06-10T05:54:34;100284.66;;;19.55;100.00
58973;BME280;44750;52.040;7.472;2023-06-10T05:59:34;100301.09;;;19.87;100.00
58973;BME280;44750;52.040;7.472;2023-06-10T06:04:34;100334.88;;;20.13;100.00
58973;BME280;44750;52.040;7.472;2023-06-10T06:09:35;100252.81;;;19.98;100.00
58973;BME280;44750;52.040;7.472;2023-06-10T06:14:38;100282.84;;;20.18;100.00
58973;BME280;44750;52.040;7.472;2023-06-10T06:19:38;100314.47;;;20.46;100.00
58973;BME280;44750;52.040;7.472;2023-06-10T06:24:39;100264.69;;;20.54;100.00
58973;BME280;44750;52.040;7.472;2023-06-10T06:29:39;100348.03;;;20.92;100.00
58973;BME280;44750;52.040;7.472;2023-06-10T06:34:44;100375.53;;;21.41;100.00
58973;BME280;44750;52.040;7.472;2023-06-10T06:39:44;100361.09;;;21.88;100.00
58973;BME280;44750;52.040;7.472;2023-06-10T06:44:44;100264.41;;;21.78;100.00
58973;BME280;44750;52.040;7.472;2023-06-10T06:49:46;100235.31;;;21.70;100.00
58973;BME280;44750;52.040;7.472;2023-06-10T06:54:46;100283.13;;;21.87;100.00
58973;BME280;44750;52.040;7.472;2023-06-10T06:59:46;100237.84;;;21.95;100.00
58973;BME280;44750;52.040;7.472;2023-06-10T07:04:47;100255.66;;;22.16;100.00
58973;BME280;44750;52.040;7.472;2023-06-10T07:09:47;100242.94;;;22.39;100.00
58973;BME280;44750;52.040;7.472;2023-06-10T07:14:47;100245.72;;;22.80;100.00
58973;BME280;44750;52.040;7.472;2023-06-10T07:19:47;100256.31;;;23.00;100.00
58973;BME280;44750;52.040;7.472;2023-06-10T07:24:47;100206.56;;;23.12;100.00
58973;BME280;44750;52.040;7.472;2023-06-10T07:29:48;100216.91;;;23.50;100.00
58973;BME280;44750;52.040;7.472;2023-06-10T07:34:48;100168.69;;;23.58;100.00
58973;BME280;44750;52.040;7.472;2023-06-10T07:39:48;100129.06;;;23.52;100.00
58973;BME280;44750;52.040;7.472;2023-06-10T07:44:48;100117.75;;;24.10;100.00
58973;BME280;44750;52.040;7.472;2023-06-10T07:49:51;100116.31;;;24.57;100.00
58973;BME280;44750;52.040;7.472;2023-06-10T07:54:51;100081.16;;;25.17;95.42
58973;BME280;44750;52.040;7.472;2023-06-10T07:59:52;99919.91;;;25.00;91.44
58973;BME280;44750;52.040;7.472;2023-06-10T08:04:52;99849.75;;;25.42;87.19
58973;BME280;44750;52.040;7.472;2023-06-10T08:09:52;99775.72;;;25.32;85.50
58973;BME280;44750;52.040;7.472;2023-06-10T08:14:52;99885.88;;;25.89;84.32
58973;BME280;44750;52.040;7.472;2023-06-10T08:19:53;99811.56;;;25.75;85.64
58973;BME280;44750;52.040;7.472;2023-06-10T08:24:53;99627.25;;;25.73;83.52
58973;BME280;44750;52.040;7.472;2023-06-10T08:29:53;99727.84;;;26.04;83.04
58973;BME280;44750;52.040;7.472;2023-06-10T08:34:53;99612.84;;;26.46;78.08
58973;BME280;44750;52.040;7.472;2023-06-10T08:39:53;99591.13;;;26.59;78.04
58973;BME280;44750;52.040;7.472;2023-06-10T08:44:55;99572.88;;;26.52;78.95
58973;BME280;44750;52.040;7.472;2023-06-10T08:49:56;99474.53;;;26.64;76.17
58973;BME280;44750;52.040;7.472;2023-06-10T08:54:59;99355.25;;;26.88;74.24
58973;BME280;44750;52.040;7.472;2023-06-10T09:00:00;99176.91;;;26.29;75.51
58973;BME280;44750;52.040;7.472;2023-06-10T09:05:00;99269.66;;;26.71;74.71
58973;BME280;44750;52.040;7.472;2023-06-10T09:10:03;99458.38;;;27.30;74.38
58973;BME280;44750;52.040;7.472;2023-06-10T09:15:04;99247.56;;;27.47;71.49
58973;BME280;44750;52.040;7.472;2023-06-10T09:20:06;99076.91;;;27.15;71.94
58973;BME280;44750;52.040;7.472;2023-06-10T09:25:09;98965.69;;;26.74;73.68
58973;BME280;44750;52.040;7.472;2023-06-10T09:30:33;99488.78;;;28.13;72.41
58973;BME280;44750;52.040;7.472;2023-06-10T09:35:33;99014.88;;;27.81;69.69
58973;BME280;44750;52.040;7.472;2023-06-10T09:40:50;98958.41;;;27.94;69.58
58973;BME280;44750;52.040;7.472;2023-06-10T09:45:50;99039.66;;;28.19;68.84
58973;BME280;44750;52.040;7.472;2023-06-10T09:50:50;99025.09;;;28.50;67.63
58973;BME280;44750;52.040;7.472;2023-06-10T09:55:52;98874.53;;;28.38;66.85
58973;BME280;44750;52.040;7.472;2023-06-10T10:00:52;98871.91;;;28.64;65.76
58973;BME280;44750;52.040;7.472;2023-06-10T10:05:59;98660.09;;;28.25;66.64
58973;BME280;44750;52.040;7.472;2023-06-10T10:11:00;98769.19;;;28.53;66.52
58973;BME280;44750;52.040;7.472;2023-06-10T10:16:07;98745.28;;;28.75;65.07
58973;BME280;44750;52.040;7.472;2023-06-10T10:21:13;98724.00;;;28.79;65.87
58973;BME280;44750;52.040;7.472;2023-06-10T10:26:14;98704.81;;;28.78;66.12
58973;BME280;44750;52.040;7.472;2023-06-10T10:31:16;98408.59;;;28.52;64.12
58973;BME280;44750;52.040;7.472;2023-06-10T10:36:19;98597.69;;;28.66;65.65
58973;BME280;44750;52.040;7.472;2023-06-10T10:41:19;98674.56;;;29.02;65.00
58973;BME280;44750;52.040;7.472;2023-06-10T10:46:20;98531.88;;;28.71;66.27
58973;BME280;44750;52.040;7.472;2023-06-10T10:51:23;98398.25;;;28.53;65.13
58973;BME280;44750;52.040;7.472;2023-06-10T10:56:27;98539.72;;;29.03;62.66
58973;BME280;44750;52.040;7.472;2023-06-10T11:01:42;98616.88;;;29.56;61.47
58973;BME280;44750;52.040;7.472;2023-06-10T11:06:53;98518.16;;;29.57;60.21
58973;BME280;44750;52.040;7.472;2023-06-10T11:11:56;98572.03;;;29.78;60.89
58973;BME280;44750;52.040;7.472;2023-06-10T11:16:58;98181.22;;;29.13;59.47
58973;BME280;44750;52.040;7.472;2023-06-10T11:22:00;98055.94;;;28.83;59.54
58973;BME280;44750;52.040;7.472;2023-06-10T11:27:20;98484.31;;;29.67;60.55
58973;BME280;44750;52.040;7.472;2023-06-10T11:32:21;98259.16;;;29.51;58.37
58973;BME280;44750;52.040;7.472;2023-06-10T11:37:21;98167.22;;;29.22;60.03
58973;BME280;44750;52.040;7.472;2023-06-10T11:42:22;98135.56;;;29.05;60.61
58973;BME280;44750;52.040;7.472;2023-06-10T11:47:22;98406.56;;;29.74;59.12
58973;BME280;44750;52.040;7.472;2023-06-10T11:52:27;98328.84;;;29.73;59.30
58973;BME280;44750;52.040;7.472;2023-06-10T11:57:27;98168.06;;;29.43;59.71
58973;BME280;44750;52.040;7.472;2023-06-10T12:02:27;98359.94;;;29.83;59.96
58973;BME280;44750;52.040;7.472;2023-06-10T12:07:28;98287.78;;;29.61;60.31
58973;BME280;44750;52.040;7.472;2023-06-10T12:12:28;98075.94;;;29.27;59.42
58973;BME280;44750;52.040;7.472;2023-06-10T12:22:38;98363.59;;;29.75;60.10
58973;BME280;44750;52.040;7.472;2023-06-10T12:27:40;98209.41;;;29.75;56.32
58973;BME280;44750;52.040;7.472;2023-06-10T12:32:45;98203.69;;;29.92;57.00
58973;BME280;44750;52.040;7.472;2023-06-10T12:42:56;98047.00;;;29.65;56.97
58973;BME280;44750;52.040;7.472;2023-06-10T12:48:07;98142.78;;;29.82;56.32
58973;BME280;44750;52.040;7.472;2023-06-10T12:53:09;98233.56;;;30.38;54.20
58973;BME280;44750;52.040;7.472;2023-06-10T12:58:09;98063.25;;;29.97;55.78
58973;BME280;44750;52.040;7.472;2023-06-10T13:03:10;98114.84;;;30.03;56.06
58973;BME280;44750;52.040;7.472;2023-06-10T13:08:10;98152.66;;;30.38;54.66
58973;BME280;44750;52.040;7.472;2023-06-10T13:13:10;98101.13;;;29.98;56.50
58973;BME280;44750;52.040;7.472;2023-06-10T13:18:10;98086.03;;;30.11;54.60
58973;BME280;44750;52.040;7.472;2023-06-10T13:23:11;98125.44;;;30.10;55.78
58973;BME280;44750;52.040;7.472;2023-06-10T13:28:11;98134.75;;;30.14;55.59
58973;BME280;44750;52.040;7.472;2023-06-10T13:33:11;97817.06;;;29.47;56.17
58973;BME280;44750;52.040;7.472;2023-06-10T13:38:11;98200.63;;;30.06;55.55
58973;BME280;44750;52.040;7.472;2023-06-10T13:43:12;98131.25;;;30.17;53.16
58973;BME280;44750;52.040;7.472;2023-06-10T13:48:12;98112.19;;;30.19;54.27
58973;BME280;44750;52.040;7.472;2023-06-10T13:53:12;98111.38;;;30.06;55.05
58973;BME280;44750;52.040;7.472;2023-06-10T13:58:12;97924.47;;;29.81;53.49
58973;BME280;44750;52.040;7.472;2023-06-10T14:03:13;98236.22;;;30.22;55.59
58973;BME280;44750;52.040;7.472;2023-06-10T14:08:13;98106.00;;;30.13;53.75
58973;BME280;44750;52.040;7.472;2023-06-10T14:13:13;98324.53;;;30.39;55.50
58973;BME280;44750;52.040;7.472;2023-06-10T14:18:14;98172.50;;;30.11;53.47
58973;BME280;44750;52.040;7.472;2023-06-10T14:23:14;98177.06;;;30.28;53.09
58973;BME280;44750;52.040;7.472;2023-06-10T14:28:14;98360.41;;;30.49;54.85
58973;BME280;44750;52.040;7.472;2023-06-10T14:33:14;98306.13;;;30.38;54.14
58973;BME280;44750;52.040;7.472;2023-06-10T14:38:15;98033.00;;;29.99;51.64
58973;BME280;44750;52.040;7.472;2023-06-10T14:43:15;98297.53;;;30.43;51.31
58973;BME280;44750;52.040;7.472;2023-06-10T14:48:15;98349.25;;;30.49;52.14
58973;BME280;44750;52.040;7.472;2023-06-10T14:53:17;98259.88;;;30.37;51.27
58973;BME280;44750;52.040;7.472;2023-06-10T14:58:17;98103.34;;;30.05;51.04
58973;BME280;44750;52.040;7.472;2023-06-10T15:03:17;98414.56;;;30.27;53.37
58973;BME280;44750;52.040;7.472;2023-06-10T15:08:17;98391.38;;;30.35;52.41
58973;BME280;44750;52.040;7.472;2023-06-10T15:13:17;98344.97;;;30.09;52.76
58973;BME280;44750;52.040;7.472;2023-06-10T15:18:18;98486.03;;;30.40;51.30
58973;BME280;44750;52.040;7.472;2023-06-10T15:23:18;98606.84;;;30.79;50.60
58973;BME280;44750;52.040;7.472;2023-06-10T15:28:18;98610.44;;;30.80;51.14
58973;BME280;44750;52.040;7.472;2023-06-10T15:33:18;98417.13;;;30.62;49.50
58973;BME280;44750;52.040;7.472;2023-06-10T15:38:19;98471.16;;;30.57;50.56
58973;BME280;44750;52.040;7.472;2023-06-10T15:43:19;98616.75;;;30.68;51.40
58973;BME280;44750;52.040;7.472;2023-06-10T15:48:19;98419.53;;;30.42;51.26
58973;BME280;44750;52.040;7.472;2023-06-10T15:53:19;98436.50;;;30.58;48.45
58973;BME280;44750;52.040;7.472;2023-06-10T15:58:20;98492.41;;;30.49;50.76
58973;BME280;44750;52.040;7.472;2023-06-10T16:03:20;98558.84;;;30.56;51.75
58973;BME280;44750;52.040;7.472;2023-06-10T16:08:20;98566.09;;;30.57;50.85
58973;BME280;44750;52.040;7.472;2023-06-10T16:13:20;98562.34;;;30.53;51.55
58973;BME280;44750;52.040;7.472;2023-06-10T16:18:21;98475.50;;;30.25;52.42
58973;BME280;44750;52.040;7.472;2023-06-10T16:23:21;98475.09;;;30.35;50.34
58973;BME280;44750;52.040;7.472;2023-06-10T16:28:21;98709.44;;;30.61;52.78
58973;BME280;44750;52.040;7.472;2023-06-10T16:33:21;98606.41;;;30.47;51.13
58973;BME280;44750;52.040;7.472;2023-06-10T16:38:21;98397.63;;;30.32;48.45
58973;BME280;44750;52.040;7.472;2023-06-10T16:43:22;98400.56;;;30.14;51.10
58973;BME280;44750;52.040;7.472;2023-06-10T16:48:25;98424.25;;;29.87;53.77
58973;BME280;44750;52.040;7.472;2023-06-10T16:53:25;98543.19;;;29.74;56.22
58973;BME280;44750;52.040;7.472;2023-06-10T16:58:25;98608.78;;;29.72;55.51
58973;BME280;44750;52.040;7.472;2023-06-10T17:03:25;98575.50;;;29.66;54.56
58973;BME280;44750;52.040;7.472;2023-06-10T17:08:26;98623.41;;;29.51;55.93
58973;BME280;44750;52.040;7.472;2023-06-10T17:13:26;98564.59;;;29.35;55.10
58973;BME280;44750;52.040;7.472;2023-06-10T17:18:27;98648.69;;;29.37;55.83
58973;BME280;44750;52.040;7.472;2023-06-10T17:23:27;98838.03;;;29.51;57.79
58973;BME280;44750;52.040;7.472;2023-06-10T17:28:27;98754.28;;;29.30;59.53
58973;BME280;44750;52.040;7.472;2023-06-10T17:33:27;98831.56;;;29.24;61.31
58973;BME280;44750;52.040;7.472;2023-06-10T17:38:28;98963.97;;;29.22;64.00
58973;BME280;44750;52.040;7.472;2023-06-10T17:43:28;98970.13;;;29.01;65.81
58973;BME280;44750;52.040;7.472;2023-06-10T17:48:28;99086.00;;;29.11;67.64
58973;BME280;44750;52.040;7.472;2023-06-10T17:53:29;99184.47;;;29.06;69.83
58973;BME280;44750;52.040;7.472;2023-06-10T17:58:29;99059.69;;;28.72;71.15
58973;BME280;44750;52.040;7.472;2023-06-10T18:03:29;99112.69;;;28.39;73.94
58973;BME280;44750;52.040;7.472;2023-06-10T18:08:30;99186.81;;;28.21;76.66
58973;BME280;44750;52.040;7.472;2023-06-10T18:13:31;99322.38;;;28.15;79.23
58973;BME280;44750;52.040;7.472;2023-06-10T18:18:31;99339.69;;;27.93;81.78
58973;BME280;44750;52.040;7.472;2023-06-10T18:23:32;99408.91;;;27.75;84.70
58973;BME280;44750;52.040;7.472;2023-06-10T18:28:32;99562.03;;;27.79;86.96
58973;BME280;44750;52.040;7.472;2023-06-10T18:33:33;99624.00;;;27.84;87.75
58973;BME280;44750;52.040;7.472;2023-06-10T18:38:33;99647.22;;;27.69;89.91
58973;BME280;44750;52.040;7.472;2023-06-10T18:43:33;99723.13;;;27.70;91.14
58973;BME280;44750;52.040;7.472;2023-06-10T18:48:33;99707.78;;;27.43;93.70
58973;BME280;44750;52.040;7.472;2023-06-10T18:53:34;99788.41;;;27.38;95.77
58973;BME280;44750;52.040;7.472;2023-06-10T18:58:34;99833.81;;;27.13;99.27
58973;BME280;44750;52.040;7.472;2023-06-10T19:03:34;99914.59;;;27.22;99.87
58973;BME280;44750;52.040;7.472;2023-06-10T19:08:34;99931.84;;;27.13;100.00
58973;BME280;44750;52.040;7.472;2023-06-10T19:13:35;99940.78;;;26.95;100.00
58973;BME280;44750;52.040;7.472;2023-06-10T19:18:35;99988.84;;;26.90;100.00
58973;BME280;44750;52.040;7.472;2023-06-10T19:23:35;100011.06;;;26.85;100.00
58973;BME280;44750;52.040;7.472;2023-06-10T19:28:35;100068.56;;;26.79;100.00
58973;BME280;44750;52.040;7.472;2023-06-10T19:33:35;100070.75;;;26.77;100.00
58973;BME280;44750;52.040;7.472;2023-06-10T19:38:36;100069.59;;;26.58;100.00
58973;BME280;44750;52.040;7.472;2023-06-10T19:43:36;100115.41;;;26.60;100.00
58973;BME280;44750;52.040;7.472;2023-06-10T19:48:37;100070.97;;;26.40;100.00
58973;BME280;44750;52.040;7.472;2023-06-10T19:53:37;100128.97;;;26.41;100.00
58973;BME280;44750;52.040;7.472;2023-06-10T19:58:38;100163.91;;;26.37;100.00
58973;BME280;44750;52.040;7.472;2023-06-10T20:03:38;100158.03;;;26.28;100.00
58973;BME280;44750;52.040;7.472;2023-06-10T20:08:38;100181.63;;;26.20;100.00
58973;BME280;44750;52.040;7.472;2023-06-10T20:13:38;100168.19;;;26.02;100.00
58973;BME280;44750;52.040;7.472;2023-06-10T20:18:38;100193.09;;;25.97;100.00
58973;BME280;44750;52.040;7.472;2023-06-10T20:23:39;100205.19;;;25.80;100.00
58973;BME280;44750;52.040;7.472;2023-06-10T20:28:39;100253.94;;;25.76;100.00
58973;BME280;44750;52.040;7.472;2023-06-10T20:33:39;100230.00;;;25.60;100.00
58973;BME280;44750;52.040;7.472;2023-06-10T20:38:40;100251.09;;;25.61;100.00
58973;BME280;44750;52.040;7.472;2023-06-10T20:43:40;100237.00;;;25.35;100.00
58973;BME280;44750;52.040;7.472;2023-06-10T20:48:40;100259.88;;;25.25;100.00
58973;BME280;44750;52.040;7.472;2023-06-10T20:53:40;100258.13;;;25.14;100.00
58973;BME280;44750;52.040;7.472;2023-06-10T20:58:41;100296.78;;;25.03;100.00
58973;BME280;44750;52.040;7.472;2023-06-10T21:03:41;100291.38;;;24.92;100.00
58973;BME280;44750;52.040;7.472;2023-06-10T21:08:41;100277.34;;;24.76;100.00
58973;BME280;44750;52.040;7.472;2023-06-10T21:13:41;100331.09;;;24.80;100.00
58973;BME280;44750;52.040;7.472;2023-06-10T21:18:41;100344.63;;;24.77;100.00
58973;BME280;44750;52.040;7.472;2023-06-10T21:23:42;100346.09;;;24.62;100.00
58973;BME280;44750;52.040;7.472;2023-06-10T21:28:42;100363.03;;;24.49;100.00
58973;BME280;44750;52.040;7.472;2023-06-10T21:33:42;100374.91;;;24.49;100.00
58973;BME280;44750;52.040;7.472;2023-06-10T21:38:42;100401.75;;;24.49;100.00
58973;BME280;44750;52.040;7.472;2023-06-10T21:43:43;100395.38;;;24.48;100.00
58973;BME280;44750;52.040;7.472;2023-06-10T21:48:43;100417.38;;;24.38;100.00
58973;BME280;44750;52.040;7.472;2023-06-10T21:53:43;100426.22;;;24.40;100.00
58973;BME280;44750;52.040;7.472;2023-06-10T21:58:44;100461.59;;;24.55;100.00
58973;BME280;44750;52.040;7.472;2023-06-10T22:03:44;100397.41;;;24.36;100.00
58973;BME280;44750;52.040;7.472;2023-06-10T22:08:44;100380.50;;;24.15;100.00
58973;BME280;44750;52.040;7.472;2023-06-10T22:13:44;100375.78;;;23.99;100.00
58973;BME280;44750;52.040;7.472;2023-06-10T22:18:44;100402.25;;;23.95;100.00
58973;BME280;44750;52.040;7.472;2023-06-10T22:23:45;100431.50;;;23.79;100.00
58973;BME280;44750;52.040;7.472;2023-06-10T22:28:45;100456.75;;;23.82;100.00
58973;BME280;44750;52.040;7.472;2023-06-10T22:33:45;100443.31;;;23.74;100.00
58973;BME280;44750;52.040;7.472;2023-06-10T22:38:45;100433.44;;;23.49;100.00
58973;BME280;44750;52.040;7.472;2023-06-10T22:43:45;100454.88;;;23.42;100.00
58973;BME280;44750;52.040;7.472;2023-06-10T22:48:46;100437.97;;;23.27;100.00
58973;BME280;44750;52.040;7.472;2023-06-10T22:53:46;100456.25;;;23.16;100.00
58973;BME280;44750;52.040;7.472;2023-06-10T22:58:46;100442.44;;;23.04;100.00
58973;BME280;44750;52.040;7.472;2023-06-10T23:03:46;100442.19;;;22.94;100.00
58973;BME280;44750;52.040;7.472;2023-06-10T23:08:47;100411.66;;;22.71;100.00
58973;BME280;44750;52.040;7.472;2023-06-10T23:13:47;100400.84;;;22.46;100.00
58973;BME280;44750;52.040;7.472;2023-06-10T23:18:47;100415.13;;;22.43;100.00
58973;BME280;44750;52.040;7.472;2023-06-10T23:23:47;100428.03;;;22.31;100.00
58973;BME280;44750;52.040;7.472;2023-06-10T23:28:47;100411.13;;;22.15;100.00
58973;BME280;44750;52.040;7.472;2023-06-10T23:33:48;100455.13;;;22.22;100.00
58973;BME280;44750;52.040;7.472;2023-06-10T23:38:48;100428.72;;;22.14;100.00
58973;BME280;44750;52.040;7.472;2023-06-10T23:43:48;100408.34;;;22.03;100.00
58973;BME280;44750;52.040;7.472;2023-06-10T23:48:48;100397.78;;;21.88;100.00
58973;BME280;44750;52.040;7.472;2023-06-10T23:53:49;100427.56;;;21.80;100.00
58973;BME280;44750;52.040;7.472;2023-06-10T23:58:49;100425.97;;;21.72;100.00
